createdAt,value
2018-07-13T00:01:42.530Z,99.90
2018-07-13T00:04:11.313Z,99.90
2018-07-13T00:06:40.156Z,99.90
2018-07-13T00:09:11.684Z,99.90
2018-07-13T00:11:41.151Z,99.90
2018-07-13T00:14:15.903Z,99.90
2018-07-13T00:16:45.357Z,99.90
2018-07-13T00:19:14.722Z,99.90
2018-07-13T00:21:43.522Z,99.90
2018-07-13T00:24:12.398Z,99.90
2018-07-13T00:26:41.589Z,99.90
2018-07-13T00:29:10.890Z,99.90
2018-07-13T00:31:40.833Z,99.90
2018-07-13T00:34:09.668Z,99.90
2018-07-13T00:36:38.541Z,99.90
2018-07-13T00:39:09.714Z,99.90
2018-07-13T00:41:38.629Z,99.90
2018-07-13T00:44:08.077Z,99.90
2018-07-13T00:46:36.866Z,99.90
2018-07-13T00:49:05.636Z,99.90
2018-07-13T00:51:34.477Z,99.90
2018-07-13T00:54:03.277Z,99.90
2018-07-13T00:56:32.090Z,99.90
2018-07-13T00:59:00.912Z,99.90
2018-07-13T01:01:29.803Z,99.90
2018-07-13T01:03:58.617Z,99.90
2018-07-13T01:06:27.444Z,99.90
2018-07-13T01:08:56.261Z,99.90
2018-07-13T01:11:25.070Z,99.90
2018-07-13T01:13:53.852Z,99.90
2018-07-13T01:16:22.670Z,99.90
2018-07-13T01:18:51.526Z,99.90
2018-07-13T01:21:20.386Z,99.90
2018-07-13T01:23:49.190Z,99.90
2018-07-13T01:26:17.993Z,99.90
2018-07-13T01:28:46.872Z,99.90
2018-07-13T01:31:15.684Z,99.90
2018-07-13T01:33:44.484Z,99.90
2018-07-13T01:36:13.291Z,99.90
2018-07-13T01:38:42.075Z,99.90
2018-07-13T01:41:10.849Z,99.90
2018-07-13T01:43:39.674Z,99.90
2018-07-13T01:46:08.455Z,99.90
2018-07-13T01:48:37.243Z,99.90
2018-07-13T01:51:06.074Z,99.90
2018-07-13T01:53:34.882Z,99.90
2018-07-13T01:56:03.705Z,99.90
2018-07-13T01:58:33.385Z,99.90
2018-07-13T02:01:02.178Z,99.90
2018-07-13T02:03:30.992Z,99.90
2018-07-13T02:05:59.766Z,99.90
2018-07-13T02:08:28.554Z,99.90
2018-07-13T02:10:57.326Z,99.90
2018-07-13T02:13:26.118Z,99.90
2018-07-13T02:15:54.922Z,99.90
2018-07-13T02:18:23.705Z,99.90
2018-07-13T02:20:52.490Z,99.90
2018-07-13T02:23:21.226Z,99.90
2018-07-13T02:25:50.030Z,99.90
2018-07-13T02:28:18.818Z,99.90
2018-07-13T02:30:47.663Z,99.90
2018-07-13T02:33:16.454Z,99.90
2018-07-13T02:35:45.277Z,99.90
2018-07-13T02:38:14.069Z,99.90
2018-07-13T02:40:42.882Z,99.90
2018-07-13T02:43:11.692Z,99.90
2018-07-13T02:45:40.528Z,99.90
2018-07-13T02:48:09.319Z,99.90
2018-07-13T02:50:38.183Z,99.90
2018-07-13T02:53:06.990Z,99.90
2018-07-13T02:55:35.862Z,99.90
2018-07-13T02:58:04.749Z,99.90
2018-07-13T03:00:33.559Z,99.90
2018-07-13T03:03:02.351Z,99.90
2018-07-13T03:05:31.164Z,99.90
2018-07-13T03:07:59.967Z,99.90
2018-07-13T03:10:28.781Z,99.90
2018-07-13T03:12:57.530Z,99.90
2018-07-13T03:15:26.318Z,99.90
2018-07-13T03:17:55.099Z,99.90
2018-07-13T03:20:23.891Z,99.90
2018-07-13T03:22:52.690Z,99.90
2018-07-13T03:25:21.519Z,99.90
2018-07-13T03:27:50.298Z,99.90
2018-07-13T03:30:19.063Z,99.90
2018-07-13T03:32:47.870Z,99.90
2018-07-13T03:35:16.702Z,99.90
2018-07-13T03:37:45.559Z,99.90
2018-07-13T03:40:14.482Z,99.90
2018-07-13T03:42:43.286Z,99.90
2018-07-13T03:45:12.144Z,99.90
2018-07-13T03:47:40.900Z,99.90
2018-07-13T03:50:09.693Z,99.90
2018-07-13T03:52:38.522Z,99.90
2018-07-13T03:55:07.370Z,99.90
2018-07-13T03:57:36.191Z,99.90
2018-07-13T04:00:05.073Z,99.90
2018-07-13T04:02:33.891Z,99.90
2018-07-13T04:05:02.678Z,99.90
2018-07-13T04:07:31.474Z,99.90
2018-07-13T04:10:00.310Z,99.90
2018-07-13T04:12:29.195Z,99.90
2018-07-13T04:14:57.999Z,99.90
2018-07-13T04:17:26.814Z,99.90
2018-07-13T04:19:55.630Z,99.90
2018-07-13T04:22:24.438Z,99.90
2018-07-13T04:24:53.267Z,99.90
2018-07-13T04:27:22.126Z,99.90
2018-07-13T04:29:51.035Z,99.90
2018-07-13T04:32:19.910Z,99.90
2018-07-13T04:34:48.718Z,99.90
2018-07-13T04:37:17.502Z,99.90
2018-07-13T04:39:46.294Z,99.90
2018-07-13T04:42:15.130Z,99.90
2018-07-13T04:44:43.930Z,99.90
2018-07-13T04:47:12.858Z,99.90
2018-07-13T04:49:41.767Z,99.90
2018-07-13T04:52:10.705Z,99.90
2018-07-13T04:54:39.605Z,99.90
2018-07-13T04:57:08.525Z,99.90
2018-07-13T04:59:37.456Z,99.90
2018-07-13T05:02:06.371Z,99.90
2018-07-13T05:04:35.319Z,99.90
2018-07-13T05:07:04.218Z,99.90
2018-07-13T05:09:33.066Z,99.90
2018-07-13T05:12:01.866Z,99.90
2018-07-13T05:14:30.662Z,99.90
2018-07-13T05:16:59.527Z,99.90
2018-07-13T05:19:28.293Z,99.90
2018-07-13T05:21:57.170Z,99.90
2018-07-13T05:24:26.084Z,99.90
2018-07-13T05:26:55.042Z,99.90
2018-07-13T05:29:23.957Z,99.90
2018-07-13T05:31:52.912Z,99.90
2018-07-13T05:34:21.858Z,99.90
2018-07-13T05:36:50.904Z,99.90
2018-07-13T05:39:19.855Z,99.90
2018-07-13T05:41:48.794Z,99.90
2018-07-13T05:44:17.717Z,99.90
2018-07-13T05:46:46.618Z,99.90
2018-07-13T05:49:15.556Z,99.90
2018-07-13T05:54:13.434Z,99.90
2018-07-13T05:56:42.345Z,99.90
2018-07-13T05:59:11.250Z,99.90
2018-07-13T06:01:40.178Z,99.90
2018-07-13T06:04:09.466Z,99.90
2018-07-13T06:06:38.377Z,99.90
2018-07-13T06:09:09.585Z,99.90
2018-07-13T06:11:38.649Z,99.90
2018-07-13T06:14:07.802Z,99.90
2018-07-13T06:17:04.616Z,99.90
2018-07-13T06:25:11.801Z,99.90
2018-07-13T06:27:41.054Z,99.90
2018-07-13T06:30:09.837Z,99.90
2018-07-13T06:32:38.674Z,99.90
2018-07-13T06:35:07.521Z,99.90
2018-07-13T06:37:36.398Z,99.90
2018-07-13T06:45:02.131Z,99.90
2018-07-13T06:47:31.131Z,99.90
2018-07-13T06:50:00.024Z,99.90
2018-07-13T06:52:28.974Z,99.90
2018-07-13T06:54:57.831Z,99.90
2018-07-13T06:57:37.759Z,99.90
2018-07-13T07:01:19.458Z,99.90
2018-07-13T07:04:54.186Z,99.90
2018-07-13T07:07:27.543Z,99.90
2018-07-13T07:09:59.421Z,99.90
2018-07-13T07:13:09.495Z,99.90
2018-07-13T07:15:38.708Z,99.90
2018-07-13T07:18:07.754Z,99.90
2018-07-13T07:20:36.594Z,99.90
2018-07-13T07:23:05.467Z,99.90
2018-07-13T07:25:34.366Z,99.90
2018-07-13T07:28:03.239Z,99.90
2018-07-13T07:30:32.189Z,99.90
2018-07-13T07:33:01.014Z,99.90
2018-07-13T07:35:29.822Z,99.90
2018-07-13T07:37:58.596Z,99.90
2018-07-13T07:40:27.539Z,99.90
2018-07-13T07:42:56.446Z,99.90
2018-07-13T07:45:25.401Z,99.90
2018-07-13T07:47:54.264Z,99.90
2018-07-13T07:50:23.078Z,99.90
2018-07-13T07:52:52.240Z,99.90
2018-07-13T07:55:21.054Z,99.90
2018-07-13T07:57:49.890Z,99.90
2018-07-13T08:00:18.703Z,99.90
2018-07-13T08:02:47.492Z,99.90
2018-07-13T08:05:16.278Z,99.90
2018-07-13T08:07:45.063Z,99.90
2018-07-13T08:10:13.892Z,99.90
2018-07-13T08:12:42.767Z,99.90
2018-07-13T08:15:11.594Z,99.90
2018-07-13T08:17:40.426Z,99.90
2018-07-13T08:20:09.374Z,99.90
2018-07-13T08:22:41.130Z,99.90
2018-07-13T08:25:12.435Z,99.90
2018-07-13T08:27:46.730Z,99.90
2018-07-13T08:30:38.607Z,99.90
2018-07-13T08:33:07.375Z,99.90
2018-07-13T08:35:36.181Z,99.90
2018-07-13T08:38:05.539Z,99.90
2018-07-13T08:40:34.456Z,99.90
2018-07-13T08:43:03.405Z,99.90
2018-07-13T08:45:32.393Z,99.90
2018-07-13T08:48:01.211Z,99.90
2018-07-13T08:50:30.196Z,99.90
2018-07-13T08:52:59.842Z,99.90
2018-07-13T08:55:28.707Z,99.90
2018-07-13T08:57:57.638Z,99.90
2018-07-13T09:00:26.566Z,99.90
2018-07-13T09:02:55.402Z,99.90
2018-07-13T09:07:52.922Z,99.90
2018-07-13T09:10:21.851Z,99.90
2018-07-13T09:15:19.180Z,99.90
2018-07-13T09:17:48.026Z,99.90
2018-07-13T09:20:23.004Z,99.90
2018-07-13T09:22:52.027Z,99.90
2018-07-13T09:25:20.898Z,99.90
2018-07-13T09:27:49.740Z,99.90
2018-07-13T09:30:18.558Z,99.90
2018-07-13T09:32:47.389Z,99.90
2018-07-13T09:35:16.269Z,99.90
2018-07-13T09:37:45.059Z,99.90
2018-07-13T09:40:13.905Z,99.90
2018-07-13T09:42:42.754Z,99.90
2018-07-13T09:45:11.599Z,99.90
2018-07-13T09:47:40.466Z,99.90
2018-07-13T09:50:09.347Z,99.90
2018-07-13T09:52:38.186Z,99.90
2018-07-13T09:55:07.083Z,99.90
2018-07-13T09:57:35.898Z,99.90
2018-07-13T10:00:12.293Z,99.90
2018-07-13T10:02:41.234Z,99.90
2018-07-13T10:05:10.113Z,99.90
2018-07-13T10:07:39.002Z,99.90
2018-07-13T10:10:07.902Z,99.90
2018-07-13T10:12:36.735Z,99.90
2018-07-13T10:15:05.583Z,99.90
2018-07-13T10:17:34.492Z,99.90
2018-07-13T10:20:03.410Z,99.90
2018-07-13T10:22:32.334Z,99.90
2018-07-13T10:25:03.051Z,99.90
2018-07-13T10:27:35.871Z,99.90
2018-07-13T10:30:05.818Z,99.90
2018-07-13T10:32:34.921Z,99.90
2018-07-13T10:35:05.946Z,99.90
2018-07-13T10:37:34.870Z,99.90
2018-07-13T10:40:03.726Z,99.90
2018-07-13T10:42:32.555Z,99.90
2018-07-13T10:45:01.407Z,99.90
2018-07-13T10:47:30.206Z,99.90
2018-07-13T10:49:59.039Z,99.90
2018-07-13T10:52:27.890Z,99.90
2018-07-13T10:54:56.679Z,99.90
2018-07-13T10:57:25.514Z,99.90
2018-07-13T11:02:22.722Z,99.90
2018-07-13T11:04:51.526Z,99.90
2018-07-13T11:07:20.367Z,99.90
2018-07-13T11:09:49.188Z,99.90
2018-07-13T11:12:18.046Z,99.90
2018-07-13T11:14:46.842Z,99.90
2018-07-13T11:17:15.608Z,99.90
2018-07-13T11:19:44.382Z,99.90
2018-07-13T11:22:13.151Z,99.90
2018-07-13T11:24:41.954Z,99.90
2018-07-13T11:27:10.724Z,99.90
2018-07-13T11:29:39.512Z,99.90
2018-07-13T11:32:08.353Z,99.90
2018-07-13T11:34:37.178Z,99.90
2018-07-13T11:37:06.290Z,99.90
2018-07-13T11:39:34.827Z,99.90
2018-07-13T11:42:03.631Z,99.90
2018-07-13T11:44:32.454Z,99.90
2018-07-13T11:47:01.222Z,99.90
2018-07-13T11:49:29.989Z,99.90
2018-07-13T11:51:58.833Z,99.90
2018-07-13T11:54:27.598Z,99.90
2018-07-13T11:56:56.432Z,99.90
2018-07-13T11:59:25.221Z,99.90
2018-07-13T12:01:54.116Z,99.90
2018-07-13T12:04:22.901Z,99.90
2018-07-13T12:06:51.705Z,99.90
2018-07-13T12:09:20.566Z,99.90
2018-07-13T12:11:49.400Z,99.90
2018-07-13T12:14:18.181Z,99.90
2018-07-13T12:16:46.983Z,99.90
2018-07-13T12:19:15.767Z,99.90
2018-07-13T12:21:44.567Z,99.90
2018-07-13T12:24:13.333Z,99.90
2018-07-13T12:26:42.126Z,99.90
2018-07-13T12:29:10.920Z,99.90
2018-07-13T12:31:39.684Z,99.90
2018-07-13T12:34:08.498Z,99.90
2018-07-13T12:36:37.270Z,99.90
2018-07-13T12:39:06.601Z,99.90
2018-07-13T12:41:35.414Z,99.90
2018-07-13T12:44:04.214Z,99.90
2018-07-13T12:46:33.046Z,99.80
2018-07-13T12:49:01.882Z,99.50
2018-07-13T12:51:30.726Z,98.70
2018-07-13T12:53:59.536Z,98.00
2018-07-13T12:56:28.318Z,96.40
2018-07-13T12:58:57.156Z,95.40
2018-07-13T13:01:25.954Z,94.30
2018-07-13T13:03:54.735Z,93.50
2018-07-13T13:06:23.548Z,93.00
2018-07-13T13:08:52.347Z,93.10
2018-07-13T13:11:21.234Z,93.60
2018-07-13T13:13:50.058Z,94.10
2018-07-13T13:16:18.852Z,93.90
2018-07-13T13:18:47.634Z,93.40
2018-07-13T13:21:16.455Z,92.80
2018-07-13T13:23:45.246Z,92.10
2018-07-13T13:26:14.022Z,91.60
2018-07-13T13:28:42.803Z,92.30
2018-07-13T13:31:11.596Z,91.90
2018-07-13T13:33:40.379Z,91.70
2018-07-13T13:36:09.158Z,91.90
2018-07-13T13:38:37.943Z,91.90
2018-07-13T13:41:06.702Z,91.00
2018-07-13T14:29:54.335Z,93.00
2018-07-13T14:32:23.124Z,92.00
2018-07-13T14:34:51.936Z,89.90
2018-07-13T14:37:21.242Z,88.30
2018-07-13T14:39:50.043Z,86.20
2018-07-13T14:42:18.823Z,83.80
2018-07-13T14:44:47.707Z,83.80
2018-07-13T14:47:16.560Z,84.50
2018-07-13T14:49:45.358Z,85.30
2018-07-13T14:52:14.175Z,85.30
2018-07-13T14:54:42.960Z,85.10
2018-07-13T14:57:11.727Z,85.10
2018-07-13T14:59:40.570Z,85.10
2018-07-13T15:02:09.370Z,85.40
2018-07-13T15:04:38.158Z,87.90
2018-07-13T15:07:06.943Z,88.30
2018-07-13T15:09:35.742Z,90.50
2018-07-13T15:14:32.991Z,92.90
2018-07-13T15:17:01.787Z,93.80
2018-07-13T15:19:30.530Z,94.70
2018-07-13T15:21:59.281Z,95.60
2018-07-13T15:24:28.062Z,96.60
2018-07-13T15:26:56.853Z,97.10
2018-07-13T15:29:25.628Z,96.80
2018-07-13T15:31:54.421Z,96.90
2018-07-13T15:34:23.246Z,97.10
2018-07-13T15:36:52.079Z,96.50
2018-07-13T15:39:20.895Z,96.30
2018-07-13T15:41:49.766Z,96.00
2018-07-13T15:44:18.555Z,95.90
2018-07-13T15:46:47.363Z,95.90
2018-07-13T15:49:16.153Z,95.10
2018-07-13T15:51:45.050Z,94.20
2018-07-13T15:54:13.868Z,94.40
2018-07-13T15:56:42.638Z,94.10
2018-07-13T15:59:11.428Z,95.10
2018-07-13T16:01:40.255Z,95.70
2018-07-13T16:04:09.046Z,95.90
2018-07-13T16:06:37.823Z,96.40
2018-07-13T16:09:06.663Z,97.30
2018-07-13T16:11:35.499Z,98.30
2018-07-13T16:14:04.306Z,99.40
2018-07-13T16:16:33.243Z,99.90
2018-07-13T16:19:02.002Z,99.90
2018-07-13T16:21:30.817Z,99.90
2018-07-13T16:23:59.587Z,99.90
2018-07-13T16:26:28.400Z,99.90
2018-07-13T16:28:57.201Z,99.90
2018-07-13T16:31:26.052Z,99.30
2018-07-13T16:33:54.910Z,99.20
2018-07-13T16:36:23.689Z,98.10
2018-07-13T16:38:52.566Z,97.00
2018-07-13T16:41:21.366Z,95.00
2018-07-13T16:43:50.181Z,93.20
2018-07-13T16:46:18.946Z,91.70
2018-07-13T16:48:47.716Z,89.90
2018-07-13T16:51:16.488Z,87.90
2018-07-13T16:53:45.282Z,86.20
2018-07-13T16:56:14.162Z,84.60
2018-07-13T16:58:42.958Z,84.20
2018-07-13T17:01:11.730Z,83.00
2018-07-13T17:03:40.537Z,82.40
2018-07-13T17:06:09.343Z,82.20
2018-07-13T17:08:38.219Z,83.20
2018-07-13T17:11:07.026Z,82.90
2018-07-13T17:13:35.826Z,82.90
2018-07-13T17:16:04.622Z,85.60
2018-07-13T17:18:33.514Z,87.10
2018-07-13T17:21:02.331Z,88.40
2018-07-13T17:23:31.122Z,89.10
2018-07-13T17:25:59.982Z,90.20
2018-07-13T17:28:28.775Z,91.40
2018-07-13T17:30:57.586Z,92.40
2018-07-13T17:33:26.385Z,93.80
2018-07-13T17:35:55.149Z,94.70
2018-07-13T17:38:23.920Z,95.30
2018-07-13T17:40:53.043Z,95.90
2018-07-13T17:43:21.838Z,97.00
2018-07-13T17:45:50.654Z,98.10
2018-07-13T17:48:19.438Z,99.40
2018-07-13T17:50:48.232Z,99.90
2018-07-13T17:53:17.342Z,99.90
2018-07-13T17:55:46.137Z,99.90
2018-07-13T17:58:14.948Z,99.90
2018-07-13T18:00:44.634Z,99.90
2018-07-13T18:03:13.390Z,99.90
2018-07-13T18:05:42.220Z,99.90
2018-07-13T18:08:11.022Z,99.90
2018-07-13T18:10:39.918Z,99.90
2018-07-13T18:13:08.914Z,99.90
2018-07-13T18:15:38.269Z,99.90
2018-07-13T18:18:07.107Z,99.90
2018-07-13T18:20:35.883Z,99.90
2018-07-13T18:23:04.799Z,99.90
2018-07-13T18:25:33.906Z,99.90
2018-07-13T18:28:02.624Z,99.90
2018-07-13T18:30:31.550Z,99.90
2018-07-13T18:33:00.323Z,99.90
2018-07-13T18:35:29.104Z,99.90
2018-07-13T18:37:57.910Z,99.90
2018-07-13T18:40:26.727Z,99.90
2018-07-13T18:42:55.634Z,99.90
2018-07-13T18:45:24.463Z,99.90
2018-07-13T18:47:53.250Z,99.90
2018-07-13T18:50:22.043Z,99.90
2018-07-13T18:52:50.838Z,99.90
2018-07-13T18:55:19.601Z,99.90
2018-07-13T18:57:48.434Z,99.90
2018-07-13T19:00:17.246Z,99.90
2018-07-13T19:02:46.072Z,99.90
2018-07-13T19:05:14.846Z,99.90
2018-07-13T19:07:43.940Z,99.90
2018-07-13T19:10:12.753Z,99.90
2018-07-13T19:12:41.578Z,99.90
2018-07-13T19:15:10.409Z,99.90
2018-07-13T19:17:39.258Z,99.90
2018-07-13T19:20:08.399Z,99.90
2018-07-13T19:22:37.281Z,99.90
2018-07-13T19:25:06.207Z,99.90
2018-07-13T19:27:34.984Z,99.90
2018-07-13T19:30:04.126Z,99.90
2018-07-13T19:32:32.938Z,99.90
2018-07-13T19:35:02.035Z,99.90
2018-07-13T19:37:30.861Z,99.90
2018-07-13T19:39:59.782Z,99.90
2018-07-13T19:42:28.964Z,99.90
2018-07-13T19:44:58.044Z,99.90
2018-07-13T19:47:26.846Z,99.90
2018-07-13T19:49:55.618Z,99.90
2018-07-13T19:52:24.433Z,99.90
2018-07-13T19:54:53.235Z,99.90
2018-07-13T19:57:22.129Z,99.90
2018-07-13T19:59:50.850Z,99.90
2018-07-13T20:02:19.714Z,99.90
2018-07-13T20:04:48.538Z,99.90
2018-07-13T20:07:17.330Z,99.90
2018-07-13T20:09:46.383Z,99.90
2018-07-13T20:12:15.246Z,99.90
2018-07-13T20:14:44.394Z,99.90
2018-07-13T20:17:13.683Z,99.90
2018-07-13T20:19:42.674Z,99.90
2018-07-13T20:22:11.472Z,99.90
2018-07-13T20:24:40.307Z,99.90
2018-07-13T20:27:09.149Z,99.90
2018-07-13T20:29:37.985Z,99.90
2018-07-13T20:32:06.820Z,99.90
2018-07-13T20:34:35.625Z,99.90
2018-07-13T20:37:04.662Z,99.90
2018-07-13T20:39:33.539Z,99.90
2018-07-13T20:42:02.286Z,99.90
2018-07-13T20:44:31.373Z,99.90
2018-07-13T20:47:00.410Z,99.90
2018-07-13T20:49:29.517Z,99.90
2018-07-13T20:51:58.294Z,99.90
2018-07-13T20:54:27.110Z,99.90
2018-07-13T20:56:55.962Z,99.90
2018-07-13T20:59:24.758Z,99.90
2018-07-13T21:01:53.900Z,99.90
2018-07-13T21:04:22.704Z,99.90
2018-07-13T21:06:51.775Z,99.90
2018-07-13T21:09:20.557Z,99.90
2018-07-13T21:11:49.672Z,99.90
2018-07-13T21:14:18.755Z,99.90
2018-07-13T21:16:47.554Z,99.90
2018-07-13T21:19:16.287Z,99.90
2018-07-13T21:21:45.087Z,99.90
2018-07-13T21:24:13.904Z,99.90
2018-07-13T21:26:43.095Z,99.90
2018-07-13T21:29:11.805Z,99.90
2018-07-13T21:31:40.680Z,99.90
2018-07-13T21:34:09.480Z,99.90
2018-07-13T21:36:38.570Z,99.90
2018-07-13T21:39:08.069Z,99.90
2018-07-13T21:41:36.929Z,99.90
2018-07-13T21:44:06.369Z,99.90
2018-07-13T21:46:35.243Z,99.90
2018-07-13T21:49:04.060Z,99.90
2018-07-13T21:51:32.837Z,99.90
2018-07-13T21:54:01.638Z,99.90
2018-07-13T21:56:30.438Z,99.90
2018-07-13T21:58:59.238Z,99.90
2018-07-13T22:01:28.082Z,99.90
2018-07-13T22:03:56.842Z,99.90
2018-07-13T22:06:25.652Z,99.90
2018-07-13T22:08:54.470Z,99.90
2018-07-13T22:11:23.279Z,99.90
2018-07-13T22:13:52.058Z,99.90
2018-07-13T22:16:20.859Z,99.90
2018-07-13T22:21:18.010Z,99.90
2018-07-13T22:23:46.908Z,99.90
2018-07-13T22:26:15.673Z,99.90
2018-07-13T22:28:44.405Z,99.90
2018-07-13T22:31:13.520Z,99.90
2018-07-13T22:33:42.382Z,99.90
2018-07-13T22:36:11.158Z,99.90
2018-07-13T22:41:08.341Z,99.90
2018-07-13T22:43:37.462Z,99.90
2018-07-13T22:46:06.327Z,99.90
2018-07-13T22:48:35.125Z,99.90
2018-07-13T22:51:03.983Z,99.90
2018-07-13T22:53:32.740Z,99.90
2018-07-13T22:56:01.510Z,99.90
2018-07-13T22:58:30.278Z,99.90
2018-07-13T23:00:59.074Z,99.90
2018-07-13T23:03:30.431Z,99.90
2018-07-13T23:06:00.450Z,99.90
2018-07-13T23:08:29.220Z,99.90
2018-07-13T23:10:58.535Z,99.90
2018-07-13T23:13:27.302Z,99.90
2018-07-13T23:15:56.086Z,99.90
2018-07-13T23:18:24.910Z,99.90
2018-07-13T23:20:53.682Z,99.90
2018-07-13T23:23:22.853Z,99.90
2018-07-13T23:25:51.622Z,99.90
2018-07-13T23:28:20.640Z,99.90
2018-07-13T23:30:49.002Z,99.90
2018-07-13T23:33:17.786Z,99.90
2018-07-13T23:35:46.605Z,99.90
2018-07-13T23:38:15.462Z,99.90
2018-07-13T23:40:44.280Z,99.90
2018-07-13T23:43:13.054Z,99.90
2018-07-13T23:45:41.838Z,99.90
2018-07-13T23:48:10.650Z,99.90
2018-07-13T23:50:39.427Z,99.90
2018-07-13T23:53:08.193Z,99.90
2018-07-13T23:55:36.990Z,99.90
2018-07-13T23:58:05.788Z,99.90
